createdAt,value
2019-03-27T00:00:26.620Z,21.34
2019-03-27T00:00:58.643Z,21.31
2019-03-27T00:01:30.665Z,21.27
2019-03-27T00:02:02.660Z,21.31
2019-03-27T00:02:34.717Z,21.25
2019-03-27T00:03:06.680Z,21.22
2019-03-27T00:03:38.672Z,21.27
2019-03-27T00:04:10.657Z,21.27
2019-03-27T00:04:42.646Z,21.28
2019-03-27T00:05:14.618Z,21.27
2019-03-27T00:05:46.606Z,21.27
2019-03-27T00:06:18.580Z,21.34
2019-03-27T00:06:50.570Z,21.27
2019-03-27T00:07:22.546Z,21.28
2019-03-27T00:07:54.520Z,21.34
2019-03-27T00:08:26.495Z,21.28
2019-03-27T00:08:59.112Z,21.23
2019-03-27T00:09:31.106Z,21.27
2019-03-27T00:10:05.705Z,21.28
2019-03-27T00:10:37.767Z,21.27
2019-03-27T00:11:09.750Z,21.3
2019-03-27T00:11:41.729Z,21.3
2019-03-27T00:12:13.711Z,21.31
2019-03-27T00:12:45.690Z,21.27
2019-03-27T00:13:17.694Z,21.27
2019-03-27T00:13:49.657Z,21.3
2019-03-27T00:14:21.630Z,21.25
2019-03-27T00:14:53.615Z,21.3
2019-03-27T00:15:25.595Z,21.25
2019-03-27T00:15:57.575Z,21.27
2019-03-27T00:16:29.553Z,21.27
2019-03-27T00:17:01.530Z,21.34
2019-03-27T00:17:33.505Z,21.34
2019-03-27T00:18:05.482Z,21.31
2019-03-27T00:18:37.463Z,21.27
2019-03-27T00:19:09.437Z,21.22
2019-03-27T00:19:41.431Z,21.27
2019-03-27T00:20:13.405Z,21.3
2019-03-27T00:20:45.376Z,21.3
2019-03-27T00:21:17.345Z,21.25
2019-03-27T00:21:49.331Z,21.34
2019-03-27T00:22:21.312Z,21.28
2019-03-27T00:22:53.283Z,21.25
2019-03-27T00:23:25.274Z,21.3
2019-03-27T00:23:57.234Z,21.25
2019-03-27T00:24:29.304Z,21.3
2019-03-27T00:25:01.271Z,21.3
2019-03-27T00:25:33.262Z,21.28
2019-03-27T00:26:05.249Z,21.27
2019-03-27T00:26:37.255Z,21.27
2019-03-27T00:27:09.229Z,21.21
2019-03-27T00:27:41.211Z,21.25
2019-03-27T00:28:13.196Z,21.3
2019-03-27T00:28:45.180Z,21.25
2019-03-27T00:29:17.166Z,21.23
2019-03-27T00:29:49.144Z,21.25
2019-03-27T00:30:21.131Z,21.25
2019-03-27T00:30:53.108Z,21.27
2019-03-27T00:31:25.110Z,21.25
2019-03-27T00:31:57.084Z,21.27
2019-03-27T00:32:29.068Z,21.23
2019-03-27T00:33:01.058Z,21.22
2019-03-27T00:33:33.042Z,21.23
2019-03-27T00:34:05.032Z,21.3
2019-03-27T00:34:36.996Z,21.25
2019-03-27T00:35:08.969Z,21.23
2019-03-27T00:35:40.969Z,21.27
2019-03-27T00:36:12.954Z,21.23
2019-03-27T00:36:44.941Z,21.27
2019-03-27T00:37:16.922Z,21.21
2019-03-27T00:37:48.892Z,21.33
2019-03-27T00:38:20.885Z,21.28
2019-03-27T00:38:52.875Z,21.27
2019-03-27T00:39:24.880Z,21.23
2019-03-27T00:39:56.857Z,21.27
2019-03-27T00:40:28.823Z,21.16
2019-03-27T00:41:00.812Z,21.25
2019-03-27T00:41:32.792Z,21.28
2019-03-27T00:42:04.780Z,21.23
2019-03-27T00:42:36.758Z,21.23
2019-03-27T00:43:08.785Z,21.25
2019-03-27T00:43:40.771Z,21.21
2019-03-27T00:44:12.746Z,21.21
2019-03-27T00:44:44.786Z,21.21
2019-03-27T00:45:26.194Z,21.23
2019-03-27T00:45:59.005Z,21.27
2019-03-27T00:46:30.976Z,21.27
2019-03-27T00:47:03.007Z,21.22
2019-03-27T00:47:35.000Z,21.25
2019-03-27T00:48:07.044Z,21.25
2019-03-27T00:48:39.036Z,21.23
2019-03-27T00:49:11.060Z,21.25
2019-03-27T00:49:43.039Z,21.23
2019-03-27T00:50:15.098Z,21.22
2019-03-27T00:50:47.079Z,21.28
2019-03-27T00:51:19.110Z,21.18
2019-03-27T00:51:51.082Z,21.27
2019-03-27T00:52:23.067Z,21.21
2019-03-27T00:52:55.057Z,21.23
2019-03-27T00:53:27.025Z,21.31
2019-03-27T00:53:59.010Z,21.31
2019-03-27T00:54:30.984Z,21.22
2019-03-27T00:55:02.964Z,21.27
2019-03-27T00:55:34.939Z,21.23
2019-03-27T00:56:06.900Z,21.19
2019-03-27T00:56:38.968Z,21.22
2019-03-27T00:57:10.936Z,21.28
2019-03-27T00:57:42.896Z,21.25
2019-03-27T00:58:14.865Z,21.23
2019-03-27T00:58:46.842Z,21.25
2019-03-27T00:59:19.335Z,21.31
2019-03-27T00:59:51.408Z,21.31
2019-03-27T01:00:23.388Z,21.25
2019-03-27T01:00:55.376Z,21.25
2019-03-27T01:01:27.355Z,21.16
2019-03-27T01:01:59.339Z,21.21
2019-03-27T01:02:31.347Z,21.18
2019-03-27T01:03:03.323Z,21.22
2019-03-27T01:03:35.333Z,21.16
2019-03-27T01:04:07.322Z,21.19
2019-03-27T01:04:39.292Z,21.23
2019-03-27T01:05:11.273Z,21.18
2019-03-27T01:05:43.255Z,21.19
2019-03-27T01:06:15.237Z,21.22
2019-03-27T01:06:47.216Z,21.23
2019-03-27T01:07:22.593Z,21.22
2019-03-27T01:07:54.555Z,21.25
2019-03-27T01:08:26.548Z,21.16
2019-03-27T01:08:58.521Z,21.21
2019-03-27T01:09:30.501Z,21.23
2019-03-27T01:10:02.507Z,21.16
2019-03-27T01:10:34.509Z,21.27
2019-03-27T01:11:06.481Z,21.19
2019-03-27T01:11:38.468Z,21.25
2019-03-27T01:12:10.436Z,21.27
2019-03-27T01:12:42.420Z,21.22
2019-03-27T01:13:14.394Z,21.16
2019-03-27T01:13:46.383Z,21.21
2019-03-27T01:14:18.377Z,21.16
2019-03-27T01:14:50.359Z,21.19
2019-03-27T01:15:22.326Z,21.21
2019-03-27T01:15:54.399Z,21.21
2019-03-27T01:16:26.381Z,21.21
2019-03-27T01:16:58.388Z,21.21
2019-03-27T01:17:30.373Z,21.18
2019-03-27T01:18:02.343Z,21.21
2019-03-27T01:18:34.307Z,21.25
2019-03-27T01:19:06.270Z,21.21
2019-03-27T01:19:38.281Z,21.18
2019-03-27T01:20:10.257Z,21.21
2019-03-27T01:20:42.222Z,21.15
2019-03-27T01:21:14.211Z,21.22
2019-03-27T01:21:46.189Z,21.22
2019-03-27T01:22:18.158Z,21.21
2019-03-27T01:22:50.130Z,21.21
2019-03-27T01:23:22.120Z,21.23
2019-03-27T01:23:54.113Z,21.22
2019-03-27T01:24:26.077Z,21.19
2019-03-27T01:24:58.064Z,21.23
2019-03-27T01:25:30.022Z,21.21
2019-03-27T01:26:02.002Z,21.22
2019-03-27T01:26:33.986Z,21.19
2019-03-27T01:27:05.968Z,21.19
2019-03-27T01:27:37.950Z,21.16
2019-03-27T01:28:09.942Z,21.21
2019-03-27T01:28:41.920Z,21.22
2019-03-27T01:29:13.906Z,21.13
2019-03-27T01:29:45.881Z,21.19
2019-03-27T01:30:17.852Z,21.16
2019-03-27T01:30:49.824Z,21.16
2019-03-27T01:31:21.822Z,21.15
2019-03-27T01:31:53.817Z,21.11
2019-03-27T01:32:25.826Z,21.16
2019-03-27T01:32:57.814Z,21.16
2019-03-27T01:33:29.814Z,21.16
2019-03-27T01:34:01.841Z,21.19
2019-03-27T01:34:33.828Z,21.11
2019-03-27T01:35:05.831Z,21.19
2019-03-27T01:35:37.805Z,21.11
2019-03-27T01:36:09.778Z,21.12
2019-03-27T01:36:41.748Z,21.15
2019-03-27T01:37:13.716Z,21.12
2019-03-27T01:37:45.776Z,21.09
2019-03-27T01:38:17.845Z,21.09
2019-03-27T01:38:49.826Z,21.15
2019-03-27T01:39:21.806Z,21.15
2019-03-27T01:39:53.782Z,21.06
2019-03-27T01:40:25.770Z,21.12
2019-03-27T01:40:57.758Z,21.09
2019-03-27T01:41:29.723Z,21.18
2019-03-27T01:42:01.712Z,21.12
2019-03-27T01:42:33.691Z,21.09
2019-03-27T01:43:05.675Z,21.11
2019-03-27T01:43:37.658Z,21.12
2019-03-27T01:44:09.627Z,21.15
2019-03-27T01:44:41.610Z,21.13
2019-03-27T01:45:13.600Z,21.13
2019-03-27T01:45:52.730Z,21.15
2019-03-27T01:46:25.251Z,21.15
2019-03-27T01:46:57.234Z,21.08
2019-03-27T01:47:29.222Z,21.13
2019-03-27T01:48:01.203Z,21.13
2019-03-27T01:48:33.188Z,21.18
2019-03-27T01:49:05.160Z,21.11
2019-03-27T01:49:37.152Z,21.13
2019-03-27T01:50:09.140Z,21.11
2019-03-27T01:50:41.135Z,21.06
2019-03-27T01:51:13.119Z,21.13
2019-03-27T01:51:45.164Z,21.09
2019-03-27T01:52:17.136Z,21.13
2019-03-27T01:52:49.105Z,21.06
2019-03-27T01:53:21.104Z,21.04
2019-03-27T01:53:53.073Z,21.06
2019-03-27T01:54:25.052Z,21.12
2019-03-27T01:54:57.072Z,21.09
2019-03-27T01:55:29.055Z,21.08
2019-03-27T01:56:01.021Z,21.08
2019-03-27T01:56:32.983Z,21.08
2019-03-27T01:57:04.959Z,21.15
2019-03-27T01:57:36.947Z,21.08
2019-03-27T01:58:08.953Z,21.03
2019-03-27T01:58:40.921Z,21.06
2019-03-27T01:59:12.962Z,21.06
2019-03-27T01:59:44.926Z,21.13
2019-03-27T02:00:16.979Z,21.06
2019-03-27T02:00:48.948Z,21.12
2019-03-27T02:01:21.008Z,21.06
2019-03-27T02:01:53.034Z,21.08
2019-03-27T02:02:25.062Z,21.08
2019-03-27T02:02:57.026Z,21.01
2019-03-27T02:03:29.043Z,21.11
2019-03-27T02:04:01.002Z,21.01
2019-03-27T02:04:33.033Z,21.04
2019-03-27T02:05:05.011Z,21
2019-03-27T02:05:37.097Z,21.08
2019-03-27T02:06:09.087Z,21.01
2019-03-27T02:06:41.107Z,21.12
2019-03-27T02:07:13.091Z,21.11
2019-03-27T02:07:45.090Z,21.11
2019-03-27T02:08:17.084Z,21.06
2019-03-27T02:08:49.059Z,21.01
2019-03-27T02:09:21.036Z,21.12
2019-03-27T02:09:52.999Z,21.09
2019-03-27T02:10:24.963Z,21
2019-03-27T02:10:56.938Z,21.08
2019-03-27T02:11:28.901Z,21.03
2019-03-27T02:12:00.933Z,21.03
2019-03-27T02:12:32.912Z,21.06
2019-03-27T02:13:04.893Z,21.13
2019-03-27T02:13:36.874Z,21.09
2019-03-27T02:14:08.959Z,21.03
2019-03-27T02:14:40.922Z,21.08
2019-03-27T02:15:12.914Z,21.04
2019-03-27T02:15:44.878Z,21.09
2019-03-27T02:16:16.854Z,21.11
2019-03-27T02:16:48.826Z,21.03
2019-03-27T02:17:20.812Z,21.08
2019-03-27T02:17:52.788Z,21.08
2019-03-27T02:18:24.770Z,21.06
2019-03-27T02:18:56.752Z,21.08
2019-03-27T02:19:28.746Z,21.08
2019-03-27T02:20:00.725Z,21.06
2019-03-27T02:20:32.742Z,21.06
2019-03-27T02:21:04.715Z,21.11
2019-03-27T02:21:36.675Z,21.11
2019-03-27T02:22:08.646Z,21.06
2019-03-27T02:22:40.634Z,21.12
2019-03-27T02:23:12.653Z,21.01
2019-03-27T02:23:44.639Z,21.08
2019-03-27T02:24:16.618Z,21
2019-03-27T02:24:48.609Z,21.08
2019-03-27T02:25:20.585Z,21.01
2019-03-27T02:25:52.569Z,21.08
2019-03-27T02:26:24.543Z,21.08
2019-03-27T02:26:56.539Z,21.08
2019-03-27T02:27:28.514Z,21.13
2019-03-27T02:28:00.500Z,21.11
2019-03-27T02:28:32.494Z,21.11
2019-03-27T02:29:04.471Z,21.04
2019-03-27T02:29:36.467Z,21.13
2019-03-27T02:30:08.453Z,21.12
2019-03-27T02:30:40.467Z,21.04
2019-03-27T02:31:12.512Z,21.06
2019-03-27T02:31:44.520Z,21.04
2019-03-27T02:32:20.355Z,21.04
2019-03-27T02:32:52.758Z,21.09
2019-03-27T02:33:24.744Z,21.08
2019-03-27T02:33:56.705Z,21.08
2019-03-27T02:34:28.697Z,21.09
2019-03-27T02:35:00.688Z,21.11
2019-03-27T02:35:32.725Z,21.08
2019-03-27T02:36:04.689Z,21.03
2019-03-27T02:36:36.799Z,21.11
2019-03-27T02:37:08.816Z,21.09
2019-03-27T02:37:40.834Z,21.12
2019-03-27T02:38:12.875Z,21.08
2019-03-27T02:38:44.863Z,21.01
2019-03-27T02:39:16.883Z,21.11
2019-03-27T02:39:48.900Z,21.09
2019-03-27T02:40:20.880Z,21.06
2019-03-27T02:40:52.891Z,21.12
2019-03-27T02:41:24.892Z,21.09
2019-03-27T02:41:56.889Z,21.06
2019-03-27T02:42:28.893Z,21.04
2019-03-27T02:43:00.937Z,21.15
2019-03-27T02:43:32.939Z,21.08
2019-03-27T02:44:04.947Z,21.09
2019-03-27T02:44:36.953Z,21.09
2019-03-27T02:45:08.944Z,21.13
2019-03-27T02:45:40.943Z,21.13
2019-03-27T02:46:24.173Z,21.08
2019-03-27T02:46:57.385Z,21.06
2019-03-27T02:47:29.383Z,21.09
2019-03-27T02:48:01.378Z,21.08
2019-03-27T02:48:33.446Z,21.11
2019-03-27T02:49:05.526Z,21.09
2019-03-27T02:49:37.558Z,21.13
2019-03-27T02:50:09.568Z,21.03
2019-03-27T02:50:41.578Z,21.08
2019-03-27T02:51:13.624Z,21.11
2019-03-27T02:51:45.609Z,21.08
2019-03-27T02:52:17.645Z,21.06
2019-03-27T02:52:49.668Z,21.13
2019-03-27T02:53:21.669Z,21.16
2019-03-27T02:53:53.677Z,21.09
2019-03-27T02:54:25.758Z,21.12
2019-03-27T02:54:57.773Z,21.09
2019-03-27T02:55:29.776Z,21.11
2019-03-27T02:56:01.777Z,21.09
2019-03-27T02:56:33.814Z,21.01
2019-03-27T02:57:05.795Z,21.13
2019-03-27T02:57:37.811Z,21.15
2019-03-27T02:58:09.804Z,21.12
2019-03-27T02:58:41.824Z,21.12
2019-03-27T02:59:13.889Z,21.03
2019-03-27T02:59:45.874Z,21.08
2019-03-27T03:00:17.864Z,21.19
2019-03-27T03:00:49.867Z,21.15
2019-03-27T03:01:21.866Z,21.09
2019-03-27T03:01:53.852Z,21.08
2019-03-27T03:02:25.842Z,21.11
2019-03-27T03:02:57.840Z,21
2019-03-27T03:03:29.854Z,21.13
2019-03-27T03:04:01.918Z,21.08
2019-03-27T03:04:33.903Z,21.09
2019-03-27T03:05:05.896Z,21.09
2019-03-27T03:05:37.881Z,21.15
2019-03-27T03:06:09.892Z,21.12
2019-03-27T03:06:41.904Z,21.09
2019-03-27T03:07:13.897Z,21.09
2019-03-27T03:07:45.880Z,21.15
2019-03-27T03:08:17.876Z,21.12
2019-03-27T03:08:49.865Z,21.16
2019-03-27T03:09:21.862Z,21.12
2019-03-27T03:09:53.876Z,21.09
2019-03-27T03:10:25.875Z,21.12
2019-03-27T03:10:57.841Z,21.16
2019-03-27T03:11:29.855Z,21.16
2019-03-27T03:12:01.880Z,21.12
2019-03-27T03:12:33.892Z,21.18
2019-03-27T03:13:06.045Z,21.12
2019-03-27T03:13:38.037Z,21.13
2019-03-27T03:14:10.013Z,21.13
2019-03-27T03:14:41.984Z,21.18
2019-03-27T03:15:14.004Z,21.16
2019-03-27T03:15:46.008Z,21.13
2019-03-27T03:16:18.034Z,21.13
2019-03-27T03:16:50.016Z,21.06
2019-03-27T03:17:22.017Z,21.12
2019-03-27T03:17:54.042Z,21.15
2019-03-27T03:18:26.067Z,21.13
2019-03-27T03:18:58.072Z,21.09
2019-03-27T03:19:30.060Z,21.15
2019-03-27T03:20:02.058Z,21.15
2019-03-27T03:20:34.041Z,21.19
2019-03-27T03:21:06.973Z,21.09
2019-03-27T03:21:38.963Z,21.13
2019-03-27T03:22:10.927Z,21.18
2019-03-27T03:22:42.910Z,21.15
2019-03-27T03:23:14.900Z,21.13
2019-03-27T03:23:46.916Z,21.16
2019-03-27T03:24:18.928Z,21.09
2019-03-27T03:24:50.982Z,21.22
2019-03-27T03:25:22.965Z,21.11
2019-03-27T03:25:54.987Z,21.12
2019-03-27T03:26:26.969Z,21.22
2019-03-27T03:26:59.001Z,21.18
2019-03-27T03:27:30.988Z,21.15
2019-03-27T03:28:02.996Z,21.16
2019-03-27T03:28:35.008Z,21.19
2019-03-27T03:29:07.016Z,21.16
2019-03-27T03:29:38.995Z,21.21
2019-03-27T03:30:10.977Z,21.12
2019-03-27T03:30:43.073Z,21.12
2019-03-27T03:31:15.108Z,21.15
2019-03-27T03:31:47.466Z,21.21
2019-03-27T03:32:19.534Z,21.19
2019-03-27T03:32:51.566Z,21.18
2019-03-27T03:33:23.603Z,21.19
2019-03-27T03:33:55.695Z,21.21
2019-03-27T03:34:27.831Z,21.22
2019-03-27T03:34:59.881Z,21.13
2019-03-27T03:35:32.670Z,21.16
2019-03-27T03:36:04.756Z,21.21
2019-03-27T03:36:36.772Z,21.19
2019-03-27T03:37:08.769Z,21.18
2019-03-27T03:37:40.766Z,21.16
2019-03-27T03:38:12.784Z,21.19
2019-03-27T03:38:44.783Z,21.19
2019-03-27T03:39:16.810Z,21.22
2019-03-27T03:39:48.791Z,21.19
2019-03-27T03:40:20.782Z,21.21
2019-03-27T03:40:52.779Z,21.16
2019-03-27T03:41:24.766Z,21.19
2019-03-27T03:41:56.763Z,21.19
2019-03-27T03:42:28.735Z,21.21
2019-03-27T03:43:00.800Z,21.19
2019-03-27T03:43:32.808Z,21.22
2019-03-27T03:44:04.801Z,21.22
2019-03-27T03:44:36.776Z,21.19
2019-03-27T03:45:08.764Z,21.22
2019-03-27T03:45:40.780Z,21.13
2019-03-27T03:46:12.772Z,21.16
2019-03-27T03:46:58.674Z,21.22
2019-03-27T03:47:32.328Z,21.21
2019-03-27T03:48:04.324Z,21.22
2019-03-27T03:48:36.329Z,21.19
2019-03-27T03:49:08.311Z,21.27
2019-03-27T03:49:40.305Z,21.22
2019-03-27T03:50:12.371Z,21.22
2019-03-27T03:50:44.513Z,21.22
2019-03-27T03:51:16.522Z,21.21
2019-03-27T03:51:48.511Z,21.22
2019-03-27T03:52:20.517Z,21.21
2019-03-27T03:52:52.526Z,21.21
2019-03-27T03:53:24.498Z,21.19
2019-03-27T03:53:56.483Z,21.25
2019-03-27T03:54:28.481Z,21.18
2019-03-27T03:55:00.513Z,21.23
2019-03-27T03:55:32.639Z,21.23
2019-03-27T03:56:04.637Z,21.21
2019-03-27T03:56:36.658Z,21.21
2019-03-27T03:57:08.649Z,21.18
2019-03-27T03:57:40.639Z,21.15
2019-03-27T03:58:12.635Z,21.15
2019-03-27T03:58:44.678Z,21.22
2019-03-27T03:59:16.763Z,21.19
2019-03-27T03:59:48.749Z,21.22
2019-03-27T04:00:20.747Z,21.13
2019-03-27T04:00:52.768Z,21.19
2019-03-27T04:01:24.739Z,21.22
2019-03-27T04:01:56.740Z,21.13
2019-03-27T04:02:28.718Z,21.19
2019-03-27T04:03:00.710Z,21.19
2019-03-27T04:03:32.708Z,21.22
2019-03-27T04:04:04.699Z,21.23
2019-03-27T04:04:36.668Z,21.21
2019-03-27T04:05:08.660Z,21.19
2019-03-27T04:05:40.647Z,21.18
2019-03-27T04:06:12.808Z,21.21
2019-03-27T04:06:44.853Z,21.21
2019-03-27T04:07:16.836Z,21.18
2019-03-27T04:07:48.838Z,21.19
2019-03-27T04:08:20.922Z,21.16
2019-03-27T04:08:52.921Z,21.18
2019-03-27T04:09:25.028Z,21.21
2019-03-27T04:09:57.069Z,21.19
2019-03-27T04:10:29.273Z,21.18
2019-03-27T04:11:01.267Z,21.21
2019-03-27T04:11:33.253Z,21.19
2019-03-27T04:12:05.231Z,21.23
2019-03-27T04:12:37.207Z,21.19
2019-03-27T04:13:09.321Z,21.15
2019-03-27T04:13:41.311Z,21.16
2019-03-27T04:14:13.279Z,21.22
2019-03-27T04:14:45.269Z,21.22
2019-03-27T04:15:17.242Z,21.15
2019-03-27T04:15:49.239Z,21.13
2019-03-27T04:16:21.226Z,21.19
2019-03-27T04:16:53.205Z,21.15
2019-03-27T04:17:25.189Z,21.22
2019-03-27T04:17:57.167Z,21.18
2019-03-27T04:18:29.247Z,21.19
2019-03-27T04:19:01.248Z,21.19
2019-03-27T04:19:33.232Z,21.21
2019-03-27T04:20:05.238Z,21.18
2019-03-27T04:20:37.265Z,21.16
2019-03-27T04:21:09.259Z,21.18
2019-03-27T04:21:41.240Z,21.22
2019-03-27T04:22:13.257Z,21.27
2019-03-27T04:22:45.260Z,21.19
2019-03-27T04:23:17.268Z,21.18
2019-03-27T04:23:49.251Z,21.19
2019-03-27T04:24:21.357Z,21.21
2019-03-27T04:24:53.448Z,21.22
2019-03-27T04:25:25.430Z,21.19
2019-03-27T04:26:09.423Z,21.21
2019-03-27T04:26:42.723Z,21.27
2019-03-27T04:27:14.746Z,21.22
2019-03-27T04:27:46.757Z,21.23
2019-03-27T04:28:18.759Z,21.18
2019-03-27T04:28:50.824Z,21.25
2019-03-27T04:29:22.802Z,21.19
2019-03-27T04:29:54.820Z,21.22
2019-03-27T04:30:27.105Z,21.11
2019-03-27T04:30:59.106Z,21.16
2019-03-27T04:31:31.137Z,21.15
2019-03-27T04:32:03.123Z,21.23
2019-03-27T04:32:35.125Z,21.16
2019-03-27T04:33:07.108Z,21.12
2019-03-27T04:33:39.111Z,21.21
2019-03-27T04:34:11.141Z,21.23
2019-03-27T04:34:46.788Z,21.27
2019-03-27T04:35:19.313Z,21.25
2019-03-27T04:35:51.294Z,21.21
2019-03-27T04:36:23.303Z,21.21
2019-03-27T04:36:55.273Z,21.28
2019-03-27T04:37:27.287Z,21.21
2019-03-27T04:37:59.285Z,21.16
2019-03-27T04:38:31.280Z,21.22
2019-03-27T04:39:03.271Z,21.23
2019-03-27T04:39:35.292Z,21.21
2019-03-27T04:40:07.270Z,21.22
2019-03-27T04:40:39.246Z,21.23
2019-03-27T04:41:11.229Z,21.21
2019-03-27T04:41:43.220Z,21.18
2019-03-27T04:42:15.277Z,21.21
2019-03-27T04:42:47.261Z,21.19
2019-03-27T04:43:19.267Z,21.16
2019-03-27T04:43:51.363Z,21.27
2019-03-27T04:44:23.372Z,21.23
2019-03-27T04:44:55.350Z,21.23
2019-03-27T04:45:27.329Z,21.21
2019-03-27T04:45:59.335Z,21.22
2019-03-27T04:46:31.345Z,21.22
2019-03-27T04:47:03.341Z,21.21
2019-03-27T04:47:35.322Z,21.21
2019-03-27T04:48:07.299Z,21.28
2019-03-27T04:48:39.263Z,21.21
2019-03-27T04:49:11.291Z,21.25
2019-03-27T04:49:43.321Z,21.19
2019-03-27T04:50:15.333Z,21.21
2019-03-27T04:50:47.379Z,21.23
2019-03-27T04:51:19.377Z,21.23
2019-03-27T04:51:51.342Z,21.28
2019-03-27T04:52:23.313Z,21.22
2019-03-27T04:52:55.294Z,21.3
2019-03-27T04:53:27.272Z,21.19
2019-03-27T04:53:59.234Z,21.21
2019-03-27T04:54:31.210Z,21.21
2019-03-27T04:55:03.178Z,21.21
2019-03-27T04:55:35.173Z,21.21
2019-03-27T04:56:07.161Z,21.19
2019-03-27T04:56:39.203Z,21.25
2019-03-27T04:57:11.183Z,21.21
2019-03-27T04:57:43.150Z,21.28
2019-03-27T04:58:15.125Z,21.19
2019-03-27T04:58:47.093Z,21.21
2019-03-27T04:59:19.078Z,21.19
2019-03-27T04:59:51.058Z,21.21
2019-03-27T05:00:23.040Z,21.12
2019-03-27T05:00:55.094Z,21.18
2019-03-27T05:01:27.083Z,21.21
2019-03-27T05:01:59.069Z,21.23
2019-03-27T05:02:31.043Z,21.28
2019-03-27T05:03:03.033Z,21.23
2019-03-27T05:03:35.044Z,21.21
2019-03-27T05:04:07.040Z,21.18
2019-03-27T05:04:39.020Z,21.19
2019-03-27T05:05:10.999Z,21.23
2019-03-27T05:05:42.978Z,21.19
2019-03-27T05:06:14.967Z,21.21
2019-03-27T05:06:46.931Z,21.13
2019-03-27T05:07:18.905Z,21.22
2019-03-27T05:07:50.899Z,21.21
2019-03-27T05:08:22.898Z,21.28
2019-03-27T05:08:54.876Z,21.22
2019-03-27T05:09:26.854Z,21.16
2019-03-27T05:09:58.843Z,21.21
2019-03-27T05:10:30.894Z,21.21
2019-03-27T05:11:02.860Z,21.18
2019-03-27T05:11:34.858Z,21.22
2019-03-27T05:12:06.839Z,21.19
2019-03-27T05:12:39.057Z,21.19
2019-03-27T05:13:11.071Z,21.12
2019-03-27T05:13:43.076Z,21.22
2019-03-27T05:14:15.116Z,21.18
2019-03-27T05:14:47.111Z,21.28
2019-03-27T05:15:19.100Z,21.23
2019-03-27T05:15:51.085Z,21.18
2019-03-27T05:16:23.057Z,21.16
2019-03-27T05:16:55.045Z,21.21
2019-03-27T05:17:27.025Z,21.18
2019-03-27T05:17:59.018Z,21.16
2019-03-27T05:18:31.004Z,21.16
2019-03-27T05:19:02.987Z,21.21
2019-03-27T05:19:34.974Z,21.21
2019-03-27T05:20:06.956Z,21.21
2019-03-27T05:20:38.965Z,21.21
2019-03-27T05:21:10.958Z,21.23
2019-03-27T05:21:42.952Z,21.19
2019-03-27T05:22:14.926Z,21.16
2019-03-27T05:22:46.911Z,21.27
2019-03-27T05:23:18.890Z,21.16
2019-03-27T05:23:50.874Z,21.19
2019-03-27T05:24:22.856Z,21.22
2019-03-27T05:24:54.840Z,21.18
2019-03-27T05:25:26.815Z,21.23
2019-03-27T05:25:58.779Z,21.16
2019-03-27T05:26:30.741Z,21.22
2019-03-27T05:27:02.718Z,21.28
2019-03-27T05:27:36.235Z,21.16
2019-03-27T05:28:08.376Z,21.3
2019-03-27T05:28:40.342Z,21.18
2019-03-27T05:29:12.359Z,21.22
2019-03-27T05:29:44.342Z,21.19
2019-03-27T05:30:16.353Z,21.23
2019-03-27T05:30:48.336Z,21.31
2019-03-27T05:31:20.422Z,21.23
2019-03-27T05:31:52.391Z,21.23
2019-03-27T05:32:24.383Z,21.22
2019-03-27T05:32:56.361Z,21.22
2019-03-27T05:33:28.371Z,21.23
2019-03-27T05:34:03.858Z,21.27
2019-03-27T05:34:35.851Z,21.23
2019-03-27T05:35:07.823Z,21.31
2019-03-27T05:35:39.804Z,21.25
2019-03-27T05:36:11.797Z,21.23
2019-03-27T05:36:43.784Z,21.23
2019-03-27T05:37:15.834Z,21.22
2019-03-27T05:37:47.826Z,21.28
2019-03-27T05:38:19.798Z,21.18
2019-03-27T05:38:51.772Z,21.22
2019-03-27T05:39:23.787Z,21.28
2019-03-27T05:39:55.777Z,21.22
2019-03-27T05:40:28.574Z,21.23
2019-03-27T05:41:00.560Z,21.27
2019-03-27T05:41:32.542Z,21.3
2019-03-27T05:42:04.516Z,21.22
2019-03-27T05:42:36.510Z,21.28
2019-03-27T05:43:09.291Z,21.3
2019-03-27T05:43:41.247Z,21.22
2019-03-27T05:44:13.234Z,21.23
2019-03-27T05:44:45.230Z,21.27
2019-03-27T05:45:17.216Z,21.28
2019-03-27T05:45:49.175Z,21.3
2019-03-27T05:46:21.182Z,21.27
2019-03-27T05:46:53.195Z,21.27
2019-03-27T05:47:25.165Z,21.28
2019-03-27T05:47:59.672Z,21.3
2019-03-27T05:48:32.051Z,21.3
2019-03-27T05:49:04.047Z,21.34
2019-03-27T05:49:36.084Z,21.34
2019-03-27T05:50:08.063Z,21.31
2019-03-27T05:50:40.026Z,21.31
2019-03-27T05:51:12.010Z,21.23
2019-03-27T05:51:43.985Z,21.36
2019-03-27T05:52:15.963Z,21.31
2019-03-27T05:52:47.953Z,21.36
2019-03-27T05:53:19.941Z,21.33
2019-03-27T05:53:51.924Z,21.27
2019-03-27T05:54:23.881Z,21.31
2019-03-27T05:54:55.864Z,21.36
2019-03-27T05:55:27.879Z,21.31
2019-03-27T05:55:59.832Z,21.37
2019-03-27T05:56:31.826Z,21.36
2019-03-27T05:57:03.810Z,21.34
2019-03-27T05:57:35.828Z,21.34
2019-03-27T05:58:07.811Z,21.36
2019-03-27T05:58:39.800Z,21.33
2019-03-27T05:59:11.775Z,21.33
2019-03-27T05:59:43.786Z,21.36
2019-03-27T06:00:15.782Z,21.34
2019-03-27T06:00:47.736Z,21.34
2019-03-27T06:01:19.767Z,21.33
2019-03-27T06:01:51.753Z,21.31
2019-03-27T06:02:23.758Z,21.36
2019-03-27T06:02:55.729Z,21.38
2019-03-27T06:03:27.712Z,21.37
2019-03-27T06:03:59.736Z,21.33
2019-03-27T06:04:31.711Z,21.31
2019-03-27T06:05:03.722Z,21.36
2019-03-27T06:05:35.711Z,21.37
2019-03-27T06:06:07.802Z,21.34
2019-03-27T06:06:39.804Z,21.33
2019-03-27T06:07:11.781Z,21.43
2019-03-27T06:07:43.748Z,21.37
2019-03-27T06:08:15.743Z,21.37
2019-03-27T06:08:47.721Z,21.38
2019-03-27T06:09:19.712Z,21.41
2019-03-27T06:09:51.711Z,21.34
2019-03-27T06:10:23.673Z,21.33
2019-03-27T06:10:55.651Z,21.4
2019-03-27T06:11:27.651Z,21.43
2019-03-27T06:11:59.664Z,21.48
2019-03-27T06:12:31.649Z,21.36
2019-03-27T06:13:03.631Z,21.46
2019-03-27T06:13:35.605Z,21.34
2019-03-27T06:14:07.584Z,21.41
2019-03-27T06:14:39.559Z,21.46
2019-03-27T06:15:11.543Z,21.43
2019-03-27T06:15:45.048Z,21.46
2019-03-27T06:16:17.274Z,21.43
2019-03-27T06:16:49.262Z,21.43
2019-03-27T06:17:21.239Z,21.46
2019-03-27T06:17:53.237Z,21.48
2019-03-27T06:18:25.206Z,21.38
2019-03-27T06:18:57.199Z,21.45
2019-03-27T06:19:29.243Z,21.49
2019-03-27T06:20:01.212Z,21.52
2019-03-27T06:20:33.184Z,21.49
2019-03-27T06:21:05.184Z,21.49
2019-03-27T06:21:37.159Z,21.49
2019-03-27T06:22:09.145Z,21.46
2019-03-27T06:22:41.133Z,21.52
2019-03-27T06:23:13.224Z,21.51
2019-03-27T06:23:45.303Z,21.53
2019-03-27T06:24:17.287Z,21.46
2019-03-27T06:24:49.261Z,21.43
2019-03-27T06:25:21.250Z,21.55
2019-03-27T06:25:53.274Z,21.43
2019-03-27T06:26:25.276Z,21.53
2019-03-27T06:26:57.259Z,21.46
2019-03-27T06:27:29.255Z,21.48
2019-03-27T06:28:01.262Z,21.43
2019-03-27T06:28:33.261Z,21.46
2019-03-27T06:29:05.234Z,21.45
2019-03-27T06:29:37.203Z,21.53
2019-03-27T06:30:09.189Z,21.53
2019-03-27T06:30:41.192Z,21.55
2019-03-27T06:31:13.172Z,21.52
2019-03-27T06:31:45.167Z,21.52
2019-03-27T06:32:17.139Z,21.59
2019-03-27T06:32:49.114Z,21.51
2019-03-27T06:33:21.107Z,21.49
2019-03-27T06:33:53.156Z,21.61
2019-03-27T06:34:25.137Z,21.51
2019-03-27T06:34:57.127Z,21.49
2019-03-27T06:35:29.130Z,21.55
2019-03-27T06:36:01.101Z,21.53
2019-03-27T06:36:33.118Z,21.53
2019-03-27T06:37:05.131Z,21.55
2019-03-27T06:37:37.126Z,21.58
2019-03-27T06:38:09.136Z,21.56
2019-03-27T06:38:41.104Z,21.59
2019-03-27T06:39:13.089Z,21.56
2019-03-27T06:39:45.063Z,21.61
2019-03-27T06:40:17.123Z,21.49
2019-03-27T06:40:49.103Z,21.59
2019-03-27T06:41:21.107Z,21.66
2019-03-27T06:41:53.081Z,21.62
2019-03-27T06:42:25.057Z,21.55
2019-03-27T06:42:57.051Z,21.7
2019-03-27T06:43:29.027Z,21.62
2019-03-27T06:44:01.018Z,21.67
2019-03-27T06:44:33.028Z,21.58
2019-03-27T06:45:05.622Z,21.64
2019-03-27T06:45:37.617Z,21.66
2019-03-27T06:46:09.623Z,21.59
2019-03-27T06:46:41.635Z,21.68
2019-03-27T06:47:13.613Z,21.64
2019-03-27T06:47:45.691Z,21.68
2019-03-27T06:48:25.947Z,21.62
2019-03-27T06:48:58.505Z,21.62
2019-03-27T06:49:30.486Z,21.62
2019-03-27T06:50:02.493Z,21.64
2019-03-27T06:50:34.486Z,21.64
2019-03-27T06:51:06.465Z,21.62
2019-03-27T06:51:40.154Z,21.7
2019-03-27T06:52:12.545Z,21.62
2019-03-27T06:52:44.523Z,21.68
2019-03-27T06:53:16.529Z,21.67
2019-03-27T06:53:48.558Z,21.71
2019-03-27T06:54:20.583Z,21.7